Time;durP1;ratioP1;P1;durP2;ratioP2;P2;SDS_P1;SDS_P2;PMS_P1;PMS_P2;Temp;Humidity;BMP_temperature;BMP_pressure;BME280_temperature;BME280_humidity;BME280_pressure;Samples;Min_cycle;Max_cycle;Signal;HPM_P1;HPM_P2
2021/03/16 00:02:16;;;;;;;5.00;4.60;;;3.60;99.90;;;;;;5014628;28;20179;-72
2021/03/16 00:04:42;;;;;;;4.77;3.87;;;3.50;99.90;;;;;;5014842;28;20224;-72
2021/03/16 00:07:08;;;;;;;4.40;4.00;;;3.50;99.90;;;;;;5013601;28;20186;-72
2021/03/16 00:09:34;;;;;;;4.60;4.13;;;3.60;99.90;;;;;;5015664;28;20184;-72
2021/03/16 00:12:00;;;;;;;4.90;4.50;;;3.70;99.90;;;;;;5015897;28;20253;-72
2021/03/16 00:14:25;;;;;;;4.50;4.20;;;3.80;99.90;;;;;;5014745;28;20660;-72
2021/03/16 00:16:51;;;;;;;4.37;3.73;;;3.70;99.90;;;;;;5014552;28;20260;-72
2021/03/16 00:19:20;;;;;;;4.47;3.93;;;3.70;99.90;;;;;;5014373;28;20253;-72
2021/03/16 00:21:46;;;;;;;4.87;4.47;;;3.80;99.90;;;;;;5014454;28;20178;-72
2021/03/16 00:24:12;;;;;;;4.93;4.53;;;3.70;99.90;;;;;;5013034;28;20190;-72
2021/03/16 00:26:38;;;;;;;5.23;4.50;;;3.70;99.90;;;;;;4996722;28;20616;-72
2021/03/16 00:29:04;;;;;;;5.10;4.70;;;3.70;99.90;;;;;;5013167;28;20181;-73
2021/03/16 00:31:30;;;;;;;4.83;4.33;;;3.60;99.90;;;;;;5014265;28;20213;-72
2021/03/16 00:33:56;;;;;;;5.07;4.57;;;3.60;99.90;;;;;;5014289;28;20208;-72
2021/03/16 00:36:21;;;;;;;5.10;4.70;;;3.60;99.90;;;;;;5012693;28;20228;-72
2021/03/16 00:38:47;;;;;;;5.00;4.60;;;3.50;99.90;;;;;;5014109;28;20238;-72
2021/03/16 00:41:13;;;;;;;4.80;4.40;;;3.50;99.90;;;;;;5012795;28;20202;-72
2021/03/16 00:43:39;;;;;;;5.27;4.77;;;3.30;99.90;;;;;;5014374;28;20183;-72
2021/03/16 00:46:05;;;;;;;5.73;5.23;;;3.30;99.90;;;;;;5013912;28;20341;-72
2021/03/16 00:48:30;;;;;;;4.80;4.40;;;3.40;99.90;;;;;;5017499;28;20171;-72
2021/03/16 00:50:56;;;;;;;5.37;4.87;;;3.50;99.90;;;;;;5013466;28;20266;-73
2021/03/16 00:53:23;;;;;;;5.13;4.73;;;3.50;99.90;;;;;;5014065;28;20187;-72
2021/03/16 00:55:48;;;;;;;4.90;4.37;;;3.50;99.90;;;;;;5013772;28;20200;-72
2021/03/16 00:58:14;;;;;;;5.43;4.97;;;3.70;99.90;;;;;;5013729;28;20187;-72
2021/03/16 01:00:39;;;;;;;4.93;4.43;;;3.70;99.90;;;;;;5013633;28;20200;-72
2021/03/16 01:03:06;;;;;;;5.30;4.63;;;3.70;99.90;;;;;;5013966;28;20192;-72
2021/03/16 01:05:35;;;;;;;5.40;4.50;;;3.80;99.90;;;;;;5013384;28;20208;-72
2021/03/16 01:08:00;;;;;;;6.17;4.40;;;3.80;99.90;;;;;;5013495;28;20173;-72
2021/03/16 01:10:30;;;;;;;4.90;4.50;;;3.80;99.90;;;;;;5012870;28;20210;-72
2021/03/16 01:12:56;;;;;;;4.83;4.33;;;3.70;99.90;;;;;;5013723;28;20184;-72
2021/03/16 01:15:22;;;;;;;5.77;4.30;;;3.80;99.90;;;;;;5013282;28;20195;-72
2021/03/16 01:17:47;;;;;;;6.10;4.63;;;3.80;99.90;;;;;;5013328;28;20206;-73
2021/03/16 01:20:17;;;;;;;5.00;4.60;;;3.80;99.90;;;;;;5013283;28;20235;-72
2021/03/16 01:22:43;;;;;;;5.60;3.97;;;3.90;99.90;;;;;;5013084;28;20176;-72
2021/03/16 01:25:10;;;;;;;6.93;4.23;;;4.00;99.90;;;;;;5013454;28;20212;-72
2021/03/16 01:27:37;;;;;;;4.57;4.17;;;4.10;99.90;;;;;;5013078;28;20205;-73
2021/03/16 01:30:04;;;;;;;4.70;4.30;;;4.00;99.90;;;;;;5020388;28;20236;-73
2021/03/16 01:32:30;;;;;;;5.40;4.90;;;3.80;99.90;;;;;;5019324;28;20180;-72
2021/03/16 01:34:56;;;;;;;4.80;4.40;;;3.70;99.90;;;;;;5013005;28;20249;-72
2021/03/16 01:37:22;;;;;;;5.37;4.87;;;3.70;99.90;;;;;;5013107;28;20189;-72
2021/03/16 01:39:48;;;;;;;5.10;4.43;;;3.80;99.90;;;;;;5012900;28;20197;-73
2021/03/16 01:42:15;;;;;;;5.37;4.57;;;3.80;99.90;;;;;;5013037;28;20181;-72
2021/03/16 01:44:43;;;;;;;5.80;4.80;;;3.80;99.90;;;;;;5012766;28;20572;-73
2021/03/16 01:47:20;;;;;;;4.90;4.50;;;3.70;99.90;;;;;;5014461;28;20545;-72
2021/03/16 01:49:45;;;;;;;4.70;4.30;;;3.80;99.90;;;;;;5012267;28;20184;-72
2021/03/16 01:52:11;;;;;;;6.33;5.20;;;3.60;99.90;;;;;;5012685;28;20713;-72
2021/03/16 01:54:41;;;;;;;5.57;5.00;;;3.70;99.90;;;;;;5012907;28;20293;-73
2021/03/16 01:57:10;;;;;;;5.47;4.80;;;3.70;99.90;;;;;;5012534;28;20555;-73
2021/03/16 01:59:35;;;;;;;6.03;5.43;;;3.70;99.90;;;;;;5011202;28;20222;-72
2021/03/16 02:02:06;;;;;;;6.10;5.50;;;3.70;99.90;;;;;;5012452;28;20185;-73
2021/03/16 02:04:49;;;;;;;6.47;5.17;;;3.80;99.90;;;;;;5012195;28;20222;-72
2021/03/16 02:07:21;;;;;;;5.80;4.63;;;3.70;99.90;;;;;;5011241;28;20183;-72
2021/03/16 02:10:11;;;;;;;6.10;5.20;;;3.70;99.90;;;;;;5012369;28;20711;-73
2021/03/16 02:12:52;;;;;;;7.10;5.33;;;3.70;99.90;;;;;;5012747;28;20541;-73
2021/03/16 02:15:23;;;;;;;6.60;6.00;;;3.70;99.90;;;;;;5012580;28;20230;-72
2021/03/16 02:17:58;;;;;;;5.47;4.97;;;3.70;99.90;;;;;;5012371;28;20199;-72
2021/03/16 02:20:33;;;;;;;6.23;5.33;;;3.70;99.90;;;;;;5013855;28;20202;-72
2021/03/16 02:23:01;;;;;;;7.23;5.60;;;3.70;99.90;;;;;;5013394;28;20183;-72
2021/03/16 02:26:11;;;;;;;6.20;5.10;;;3.70;99.90;;;;;;5012440;28;20200;-72
2021/03/16 02:29:00;;;;;;;6.30;5.73;;;3.70;99.90;;;;;;5011878;28;20179;-73
2021/03/16 02:31:27;;;;;;;6.20;5.13;;;3.70;99.90;;;;;;5012510;28;20210;-72
2021/03/16 02:33:55;;;;;;;6.37;5.40;;;3.70;99.90;;;;;;5010815;28;20273;-72
2021/03/16 02:36:23;;;;;;;6.20;5.47;;;3.70;99.90;;;;;;5011946;28;20623;-72
2021/03/16 02:38:51;;;;;;;7.70;5.73;;;3.50;99.90;;;;;;5012328;28;20576;-72
2021/03/16 02:41:20;;;;;;;7.30;6.43;;;3.40;99.90;;;;;;5012084;28;20176;-72
2021/03/16 02:43:47;;;;;;;9.17;6.27;;;3.40;99.90;;;;;;5012337;28;20214;-72
2021/03/16 02:46:13;;;;;;;7.00;6.40;;;3.40;99.90;;;;;;5011802;28;20203;-73
2021/03/16 02:48:43;;;;;;;6.37;5.77;;;3.50;99.90;;;;;;5012241;28;20232;-72
2021/03/16 02:51:10;;;;;;;6.17;5.57;;;3.60;99.90;;;;;;5012648;28;20176;-72
2021/03/16 02:53:39;;;;;;;6.67;6.07;;;3.60;99.90;;;;;;5021708;28;20191;-72
2021/03/16 02:56:06;;;;;;;6.47;5.97;;;4.00;99.90;;;;;;5008023;28;20702;-72
2021/03/16 02:58:34;;;;;;;6.10;5.60;;;3.80;99.90;;;;;;5011415;28;20164;-73
2021/03/16 03:01:01;;;;;;;6.50;6.00;;;3.70;99.90;;;;;;5010922;28;20208;-72
2021/03/16 03:03:29;;;;;;;6.43;5.83;;;3.80;99.90;;;;;;5011427;28;20184;-72
2021/03/16 03:05:56;;;;;;;6.83;6.23;;;3.80;99.90;;;;;;5011602;28;20216;-73
2021/03/16 03:08:24;;;;;;;6.57;5.97;;;3.80;99.90;;;;;;5012018;28;20176;-72
2021/03/16 03:10:50;;;;;;;7.13;6.00;;;3.70;99.90;;;;;;5011897;28;20189;-73
2021/03/16 03:13:15;;;;;;;7.90;5.90;;;3.70;99.90;;;;;;5015751;28;20181;-72
2021/03/16 03:15:42;;;;;;;8.47;6.27;;;3.60;99.90;;;;;;5014226;28;20290;-72
2021/03/16 03:18:07;;;;;;;7.43;6.50;;;3.60;99.90;;;;;;5014376;28;20610;-72
2021/03/16 03:20:34;;;;;;;6.63;5.90;;;3.60;99.90;;;;;;5015584;28;20198;-72
2021/03/16 03:23:24;;;;;;;6.53;6.03;;;3.70;99.90;;;;;;5015516;28;20231;-72
2021/03/16 03:25:58;;;;;;;6.30;5.60;;;3.70;99.90;;;;;;5010196;28;20215;-72
2021/03/16 03:28:26;;;;;;;6.20;5.63;;;3.80;99.90;;;;;;5015849;28;20204;-72
2021/03/16 03:30:52;;;;;;;11.50;6.33;;;3.70;99.90;;;;;;5054855;22;20233;-73
2021/03/16 03:33:21;;;;;;;6.77;6.17;;;3.70;99.90;;;;;;5028311;28;20708;-73
2021/03/16 03:35:47;;;;;;;10.10;5.67;;;3.70;99.90;;;;;;5035109;28;20711;-73
2021/03/16 03:38:14;;;;;;;5.93;5.33;;;3.70;99.90;;;;;;5034034;28;20179;-72
2021/03/16 03:40:43;;;;;;;5.50;5.00;;;3.80;99.90;;;;;;5034838;28;20236;-73
2021/03/16 03:43:11;;;;;;;5.00;4.50;;;3.80;99.90;;;;;;5035238;28;20222;-72
2021/03/16 03:45:38;;;;;;;5.03;4.53;;;3.70;99.90;;;;;;5034999;28;20180;-72
2021/03/16 03:48:08;;;;;;;5.00;4.20;;;3.80;99.90;;;;;;5034741;28;20650;-72
2021/03/16 03:50:38;;;;;;;5.23;3.80;;;3.70;99.90;;;;;;5028763;28;20278;-73
2021/03/16 03:53:04;;;;;;;6.23;4.30;;;3.80;99.90;;;;;;5029158;28;20206;-72
2021/03/16 03:55:30;;;;;;;4.17;3.43;;;3.80;99.90;;;;;;5029918;28;20196;-72
2021/03/16 03:57:57;;;;;;;6.13;3.10;;;3.80;99.90;;;;;;5015505;28;20235;-72
2021/03/16 04:00:24;;;;;;;3.97;2.97;;;3.80;99.90;;;;;;5017016;28;20206;-72
2021/03/16 04:02:52;;;;;;;6.07;3.00;;;3.90;99.90;;;;;;5014707;28;20186;-72
2021/03/16 04:05:19;;;;;;;5.87;3.00;;;3.80;99.90;;;;;;5018391;28;20217;-72
2021/03/16 04:07:45;;;;;;;3.97;2.87;;;3.90;99.90;;;;;;5015617;28;20209;-72
2021/03/16 04:10:13;;;;;;;3.63;3.00;;;3.80;99.90;;;;;;5016532;28;20744;-72
2021/03/16 04:12:39;;;;;;;2.90;2.60;;;3.90;99.90;;;;;;5014771;28;20175;-72
2021/03/16 04:15:10;;;;;;;6.60;3.47;;;3.90;99.90;;;;;;5017030;28;20179;-73
2021/03/16 04:17:38;;;;;;;3.43;2.70;;;3.90;99.90;;;;;;5018765;28;20668;-72
2021/03/16 04:20:06;;;;;;;3.27;2.97;;;4.00;99.90;;;;;;5016598;28;20203;-73
2021/03/16 04:22:32;;;;;;;4.70;2.90;;;4.10;99.90;;;;;;5015410;28;20179;-73
2021/03/16 04:24:59;;;;;;;4.50;3.00;;;4.10;99.90;;;;;;5014509;28;20177;-73
2021/03/16 04:27:25;;;;;;;4.00;2.90;;;4.10;99.90;;;;;;5013730;28;20225;-73
2021/03/16 04:29:52;;;;;;;4.23;3.03;;;4.10;99.90;;;;;;5013362;28;20219;-73
2021/03/16 04:32:18;;;;;;;3.33;2.43;;;4.10;99.90;;;;;;5014291;28;20175;-72
2021/03/16 04:34:44;;;;;;;2.83;2.63;;;4.10;99.90;;;;;;5017208;28;20899;-73
2021/03/16 04:37:11;;;;;;;4.87;2.67;;;4.30;99.90;;;;;;5014727;28;20199;-72
2021/03/16 04:39:36;;;;;;;4.10;3.10;;;4.20;99.90;;;;;;5015393;28;20758;-73
2021/03/16 04:42:02;;;;;;;5.20;3.00;;;4.20;99.90;;;;;;5013791;28;20263;-72
2021/03/16 04:44:28;;;;;;;2.93;2.57;;;4.20;99.90;;;;;;5014714;28;20260;-73
2021/03/16 04:46:54;;;;;;;3.67;2.67;;;4.20;99.90;;;;;;5033786;28;20267;-72
2021/03/16 04:49:20;;;;;;;3.23;2.70;;;4.10;99.90;;;;;;5032612;28;20198;-73
2021/03/16 04:51:45;;;;;;;2.93;2.50;;;4.10;99.90;;;;;;5033443;28;20181;-73
2021/03/16 04:54:11;;;;;;;3.97;2.60;;;4.10;99.90;;;;;;5035379;28;20185;-73
2021/03/16 04:56:37;;;;;;;2.87;2.50;;;4.10;99.90;;;;;;5014020;28;20269;-73
2021/03/16 04:59:03;;;;;;;3.80;2.30;;;4.00;99.90;;;;;;5034638;28;20226;-72
2021/03/16 05:01:30;;;;;;;3.00;2.50;;;4.00;99.90;;;;;;5018452;28;20184;-73
2021/03/16 05:03:55;;;;;;;4.67;2.60;;;4.00;99.90;;;;;;5025457;28;20265;-73
2021/03/16 05:06:21;;;;;;;3.33;2.40;;;4.20;99.90;;;;;;5014092;28;20271;-73
2021/03/16 05:08:46;;;;;;;9.53;2.40;;;4.10;99.90;;;;;;5033060;28;20578;-72
2021/03/16 05:11:12;;;;;;;3.50;2.20;;;4.20;99.90;;;;;;5033506;28;20196;-73
2021/03/16 05:13:38;;;;;;;2.87;2.10;;;4.20;99.90;;;;;;5034735;28;20184;-72
2021/03/16 05:16:04;;;;;;;3.47;2.40;;;4.10;99.90;;;;;;5025640;28;20313;-72
2021/03/16 05:18:30;;;;;;;2.53;2.10;;;4.10;99.90;;;;;;5034683;28;20193;-72
2021/03/16 05:20:56;;;;;;;4.13;2.33;;;4.20;99.90;;;;;;5034392;28;20206;-72
2021/03/16 05:23:22;;;;;;;2.93;2.70;;;4.20;99.90;;;;;;5034643;28;20176;-73
2021/03/16 05:25:49;;;;;;;2.50;2.10;;;4.20;99.90;;;;;;5034618;28;20261;-73
2021/03/16 05:28:15;;;;;;;5.90;2.50;;;4.20;99.90;;;;;;5034511;28;20180;-72
2021/03/16 05:30:41;;;;;;;4.20;2.00;;;4.30;99.90;;;;;;5027109;28;20686;-72
2021/03/16 05:33:06;;;;;;;2.97;1.90;;;4.20;99.90;;;;;;5016574;28;20258;-72
2021/03/16 05:35:32;;;;;;;3.17;2.23;;;4.20;99.90;;;;;;5034292;28;20185;-72
2021/03/16 05:37:59;;;;;;;4.93;2.10;;;4.20;99.90;;;;;;5032331;28;20182;-72
2021/03/16 05:40:29;;;;;;;2.73;2.13;;;4.40;99.90;;;;;;5034643;28;20227;-73
2021/03/16 05:42:57;;;;;;;4.87;2.07;;;4.30;99.90;;;;;;5033123;28;20180;-73
2021/03/16 05:45:24;;;;;;;4.23;1.70;;;4.20;99.90;;;;;;5034372;28;20194;-72
2021/03/16 05:47:51;;;;;;;4.50;1.60;;;4.20;99.90;;;;;;5023931;28;20172;-72
2021/03/16 05:50:17;;;;;;;3.40;1.97;;;4.20;99.90;;;;;;5020175;28;20567;-71
2021/03/16 05:52:44;;;;;;;1.90;1.70;;;4.30;99.90;;;;;;5034268;28;20191;-72
2021/03/16 05:55:11;;;;;;;6.00;1.87;;;4.20;99.90;;;;;;5010105;28;20177;-70
2021/03/16 05:57:38;;;;;;;2.97;2.00;;;4.20;99.90;;;;;;5003579;28;20541;-71
2021/03/16 06:00:05;;;;;;;5.03;1.70;;;4.20;99.90;;;;;;5020825;28;20212;-72
2021/03/16 06:02:31;;;;;;;1.57;1.40;;;4.20;99.90;;;;;;5012741;28;20181;-71
2021/03/16 06:04:59;;;;;;;4.20;1.90;;;4.20;99.90;;;;;;5007388;28;20180;-72
2021/03/16 06:07:25;;;;;;;4.17;1.67;;;4.10;99.90;;;;;;5008151;28;20213;-72
2021/03/16 06:09:51;;;;;;;4.27;1.80;;;4.00;99.90;;;;;;5000555;28;20224;-73
2021/03/16 06:12:28;;;;;;;3.60;1.50;;;4.00;99.90;;;;;;4998573;28;20712;-73
2021/03/16 06:14:54;;;;;;;2.30;1.60;;;4.10;99.90;;;;;;4999783;28;20179;-73
2021/03/16 06:17:19;;;;;;;3.83;1.70;;;4.20;99.90;;;;;;4996690;28;20181;-72
2021/03/16 06:19:45;;;;;;;2.30;1.60;;;4.20;99.90;;;;;;5017092;28;20213;-72
2021/03/16 06:22:16;;;;;;;3.77;1.47;;;4.30;99.90;;;;;;5018927;28;20525;-73
2021/03/16 06:24:46;;;;;;;2.10;1.40;;;4.20;99.90;;;;;;5028347;28;20181;-73
2021/03/16 06:27:26;;;;;;;8.77;1.73;;;4.10;99.90;;;;;;5025890;28;20592;-73
2021/03/16 06:29:53;;;;;;;6.53;1.80;;;4.20;99.90;;;;;;5033266;28;20684;-71
2021/03/16 06:32:19;;;;;;;5.20;1.90;;;4.20;99.90;;;;;;5033450;28;20179;-72
2021/03/16 06:34:45;;;;;;;4.20;1.60;;;4.10;99.90;;;;;;5032123;28;20183;-73
2021/03/16 06:37:12;;;;;;;2.53;1.67;;;4.10;99.90;;;;;;5014127;28;20520;-74
2021/03/16 06:39:45;;;;;;;3.13;1.67;;;4.10;99.90;;;;;;4998556;28;20204;-73
2021/03/16 06:42:40;;;;;;;3.03;1.83;;;3.90;99.90;;;;;;5033742;28;20172;-72
2021/03/16 06:45:08;;;;;;;2.87;1.83;;;4.00;99.90;;;;;;5020311;28;20198;-72
2021/03/16 06:47:43;;;;;;;3.67;1.60;;;4.10;99.90;;;;;;5017345;28;20188;-72
2021/03/16 06:50:10;;;;;;;2.90;1.57;;;4.10;99.90;;;;;;5033430;28;20678;-73
2021/03/16 06:52:35;;;;;;;2.90;1.50;;;4.20;99.90;;;;;;5033246;28;20271;-73
2021/03/16 06:55:12;;;;;;;4.17;1.80;;;3.90;99.90;;;;;;5030000;28;20300;-73
2021/03/16 06:57:38;;;;;;;3.60;1.40;;;3.80;99.90;;;;;;5014655;28;20256;-73
2021/03/16 07:00:10;;;;;;;3.60;1.67;;;3.70;99.90;;;;;;5031549;28;20301;-73
2021/03/16 07:02:36;;;;;;;2.73;1.53;;;3.60;99.90;;;;;;5024281;28;20621;-73
2021/03/16 07:05:03;;;;;;;2.70;1.73;;;3.60;99.90;;;;;;5032932;28;20198;-74
2021/03/16 07:07:29;;;;;;;3.83;1.87;;;3.60;99.90;;;;;;5033162;28;20212;-74
2021/03/16 07:09:55;;;;;;;4.00;1.90;;;3.60;99.90;;;;;;5032961;28;20199;-74
2021/03/16 07:12:23;;;;;;;5.60;1.90;;;3.60;99.90;;;;;;5031731;28;20681;-73
2021/03/16 07:14:49;;;;;;;11.77;2.07;;;3.60;99.90;;;;;;5032910;28;20170;-73
2021/03/16 07:17:16;;;;;;;3.80;1.73;;;3.70;99.90;;;;;;5033273;28;20191;-73
2021/03/16 07:19:48;;;;;;;3.00;1.33;;;3.60;99.90;;;;;;5032990;28;20296;-74
2021/03/16 07:22:20;;;;;;;4.50;1.63;;;3.70;99.90;;;;;;5033338;28;20182;-74
2021/03/16 07:24:46;;;;;;;3.43;1.50;;;3.70;99.90;;;;;;5033546;28;20539;-74
2021/03/16 07:27:12;;;;;;;5.93;1.50;;;3.70;99.90;;;;;;5033669;28;20201;-74
2021/03/16 07:29:38;;;;;;;4.17;1.50;;;3.80;99.90;;;;;;5033493;28;20696;-74
2021/03/16 07:32:07;;;;;;;3.97;1.30;;;3.80;99.90;;;;;;5033251;28;20194;-74
2021/03/16 07:34:37;;;;;;;4.70;1.43;;;3.90;99.90;;;;;;5022280;28;20179;-74
2021/03/16 07:37:03;;;;;;;4.97;1.30;;;3.90;99.90;;;;;;5033079;28;20179;-74
2021/03/16 07:39:29;;;;;;;6.40;1.47;;;4.00;99.90;;;;;;5032850;28;20207;-74
2021/03/16 07:41:56;;;;;;;3.13;1.40;;;3.90;99.90;;;;;;5032850;28;20191;-74
2021/03/16 07:44:22;;;;;;;4.10;1.20;;;4.00;99.90;;;;;;5032996;28;20186;-73
2021/03/16 07:46:59;;;;;;;3.83;1.30;;;3.90;99.90;;;;;;5032635;28;20172;-73
2021/03/16 07:49:29;;;;;;;2.50;1.20;;;4.00;99.90;;;;;;5033470;28;20599;-73
2021/03/16 07:51:55;;;;;;;3.23;1.27;;;4.10;99.90;;;;;;5032861;28;20206;-73
2021/03/16 07:54:21;;;;;;;5.47;1.40;;;4.00;99.90;;;;;;5032897;28;20601;-73
2021/03/16 07:57:00;;;;;;;2.80;1.20;;;4.10;99.90;;;;;;5034820;28;20175;-73
2021/03/16 07:59:36;;;;;;;6.37;1.67;;;4.10;99.90;;;;;;5035002;28;20574;-73
2021/03/16 08:02:03;;;;;;;2.17;1.20;;;4.20;99.90;;;;;;5027843;28;20197;-74
2021/03/16 08:04:36;;;;;;;7.20;2.00;;;4.10;99.90;;;;;;5036205;28;20175;-74
2021/03/16 08:07:07;;;;;;;3.80;1.60;;;4.10;99.90;;;;;;5035025;28;20211;-73
2021/03/16 08:09:55;;;;;;;2.87;1.43;;;4.40;99.90;;;;;;5036219;28;20202;-74
2021/03/16 08:12:31;;;;;;;4.03;1.60;;;4.20;99.90;;;;;;5036082;28;20167;-73
2021/03/16 08:15:08;;;;;;;3.13;1.63;;;4.30;99.90;;;;;;5035882;28;20183;-73
2021/03/16 08:17:35;;;;;;;4.33;1.80;;;4.30;99.90;;;;;;5035708;28;20187;-74
2021/03/16 08:20:02;;;;;;;3.37;1.90;;;4.20;99.90;;;;;;5034458;28;20216;-73
2021/03/16 08:22:31;;;;;;;5.40;2.10;;;4.30;99.90;;;;;;5034494;28;20220;-73
2021/03/16 08:25:05;;;;;;;3.20;2.07;;;4.30;99.90;;;;;;5035753;28;20631;-74
2021/03/16 08:27:33;;;;;;;4.70;2.07;;;4.20;99.90;;;;;;5035974;28;20539;-73
2021/03/16 08:29:59;;;;;;;4.23;2.47;;;4.20;99.90;;;;;;5035367;28;20247;-74
2021/03/16 08:32:25;;;;;;;3.30;2.10;;;4.30;99.90;;;;;;5038700;28;20175;-73
2021/03/16 08:34:54;;;;;;;2.97;2.00;;;4.30;99.90;;;;;;5036330;28;20198;-73
2021/03/16 08:37:25;;;;;;;2.47;1.87;;;4.30;99.90;;;;;;5035695;28;20244;-74
2021/03/16 08:39:52;;;;;;;4.70;2.20;;;4.30;99.90;;;;;;5035320;28;20206;-74
2021/03/16 08:42:20;;;;;;;7.50;1.93;;;4.20;99.90;;;;;;5035561;28;20650;-73
2021/03/16 08:44:46;;;;;;;3.47;2.53;;;4.20;99.90;;;;;;5020247;28;20183;-73
2021/03/16 08:47:21;;;;;;;4.83;2.20;;;4.20;99.90;;;;;;5035639;28;20178;-74
2021/03/16 08:49:50;;;;;;;5.20;1.80;;;4.20;99.90;;;;;;5035510;28;20206;-73
2021/03/16 08:52:28;;;;;;;6.43;1.83;;;4.20;99.90;;;;;;5035313;28;20182;-74
2021/03/16 08:54:56;;;;;;;2.37;1.77;;;4.20;99.90;;;;;;5033964;28;20199;-74
2021/03/16 08:57:26;;;;;;;4.53;1.70;;;4.20;99.90;;;;;;5035258;28;20187;-74
2021/03/16 08:59:57;;;;;;;7.13;2.43;;;4.30;99.90;;;;;;5033679;28;20298;-74
2021/03/16 09:02:28;;;;;;;4.67;2.10;;;4.30;99.90;;;;;;5029033;28;20194;-73
2021/03/16 09:04:58;;;;;;;3.63;1.63;;;4.30;99.90;;;;;;5035159;28;20181;-74
2021/03/16 09:07:31;;;;;;;3.73;1.47;;;4.30;99.90;;;;;;5034147;28;20172;-73
2021/03/16 09:10:11;;;;;;;4.87;2.20;;;4.30;99.90;;;;;;5033611;28;20252;-73
2021/03/16 09:12:42;;;;;;;3.87;1.50;;;4.40;99.90;;;;;;5035131;28;20592;-73
2021/03/16 09:15:12;;;;;;;2.67;1.83;;;4.40;99.90;;;;;;5034355;28;20291;-73
2021/03/16 09:17:39;;;;;;;3.13;1.73;;;4.40;99.90;;;;;;5034920;28;20643;-74
2021/03/16 09:20:14;;;;;;;5.63;2.03;;;4.40;99.90;;;;;;5034726;28;20210;-73
2021/03/16 09:22:40;;;;;;;4.97;1.80;;;4.50;99.90;;;;;;5033472;28;20182;-74
2021/03/16 09:25:08;;;;;;;4.70;1.67;;;5.00;99.90;;;;;;5034901;28;20255;-74
2021/03/16 09:27:36;;;;;;;2.50;1.80;;;4.90;99.90;;;;;;5034461;28;20566;-73
2021/03/16 09:30:03;;;;;;;5.37;2.10;;;4.90;99.90;;;;;;5059027;23;20322;-74
2021/03/16 09:32:29;;;;;;;5.33;2.10;;;5.00;99.90;;;;;;5047933;28;20179;-74
2021/03/16 09:34:55;;;;;;;3.50;1.87;;;5.00;99.90;;;;;;5046729;28;20203;-74
2021/03/16 09:37:22;;;;;;;3.43;1.73;;;4.90;99.90;;;;;;5034627;28;20173;-74
2021/03/16 09:39:54;;;;;;;3.97;1.53;;;5.00;99.90;;;;;;5051777;28;20194;-78
2021/03/16 09:42:31;;;;;;;3.40;2.00;;;5.00;99.90;;;;;;5053767;28;20248;-73
2021/03/16 09:44:59;;;;;;;3.57;1.70;;;5.10;99.90;;;;;;5054407;28;20176;-75
2021/03/16 09:47:26;;;;;;;2.50;1.67;;;5.10;99.90;;;;;;5054265;28;20194;-75
2021/03/16 09:50:04;;;;;;;7.13;1.87;;;5.00;99.90;;;;;;5052584;28;20225;-76
2021/03/16 09:52:30;;;;;;;4.47;1.90;;;5.00;99.90;;;;;;5054028;28;20588;-75
2021/03/16 09:54:56;;;;;;;2.73;1.80;;;5.00;99.90;;;;;;5053824;28;20173;-75
2021/03/16 09:57:31;;;;;;;4.60;2.37;;;5.20;99.90;;;;;;5052624;28;20183;-75
2021/03/16 09:59:57;;;;;;;4.97;2.50;;;5.20;99.90;;;;;;5053574;28;20195;-75
2021/03/16 10:02:32;;;;;;;5.50;2.13;;;5.10;99.90;;;;;;5037477;28;20671;-75
2021/03/16 10:05:07;;;;;;;4.87;2.33;;;5.10;99.90;;;;;;5033900;28;20180;-75
2021/03/16 10:07:33;;;;;;;4.17;2.00;;;5.10;99.90;;;;;;5032541;28;20176;-75
2021/03/16 10:10:19;;;;;;;3.90;2.67;;;5.10;99.90;;;;;;5032296;28;20704;-73
2021/03/16 10:13:02;;;;;;;2.93;2.03;;;5.10;99.90;;;;;;5033717;28;20677;-75
2021/03/16 10:15:31;;;;;;;8.10;2.33;;;5.20;99.90;;;;;;5033590;28;20254;-75
2021/03/16 10:17:59;;;;;;;3.93;1.20;;;5.20;99.90;;;;;;5033667;28;20172;-75
2021/03/16 10:20:31;;;;;;;2.60;1.30;;;5.20;99.90;;;;;;5033388;28;20233;-75
2021/03/16 10:23:03;;;;;;;3.47;1.67;;;5.30;99.90;;;;;;5033819;28;20182;-75
2021/03/16 10:25:31;;;;;;;4.70;1.30;;;5.30;99.90;;;;;;5032257;28;20171;-75
2021/03/16 10:28:02;;;;;;;3.07;1.23;;;5.40;99.90;;;;;;5033440;28;20243;-75
2021/03/16 10:30:40;;;;;;;3.87;1.53;;;5.40;99.90;;;;;;5033160;28;20749;-75
2021/03/16 10:33:07;;;;;;;4.90;1.30;;;5.40;99.90;;;;;;5032292;28;20176;-75
2021/03/16 10:35:36;;;;;;;3.50;1.30;;;5.40;99.90;;;;;;5032085;28;20177;-75
2021/03/16 10:38:05;;;;;;;3.20;1.23;;;5.40;99.90;;;;;;5033508;28;20172;-75
2021/03/16 10:40:32;;;;;;;4.47;1.50;;;5.40;99.90;;;;;;5033156;28;20212;-75
2021/03/16 10:42:57;;;;;;;2.23;0.80;;;5.40;99.90;;;;;;5033271;28;20264;-75
2021/03/16 10:45:24;;;;;;;2.10;1.13;;;5.30;99.90;;;;;;5033370;28;20171;-75
2021/03/16 10:47:50;;;;;;;5.87;1.17;;;5.20;99.90;;;;;;5033466;28;20183;-75
2021/03/16 10:50:16;;;;;;;3.17;1.30;;;5.30;99.90;;;;;;5032955;28;20203;-75
2021/03/16 10:52:45;;;;;;;4.87;1.37;;;5.30;99.90;;;;;;5033246;28;20237;-74
2021/03/16 10:55:11;;;;;;;5.00;1.47;;;5.40;99.90;;;;;;5033076;28;20289;-75
2021/03/16 10:57:36;;;;;;;3.63;1.40;;;5.40;99.90;;;;;;5033174;28;20266;-75
2021/03/16 11:00:08;;;;;;;2.80;1.50;;;5.50;99.90;;;;;;5032846;28;20221;-75
2021/03/16 11:02:34;;;;;;;5.93;1.50;;;5.50;99.90;;;;;;5031317;28;20173;-75
2021/03/16 11:05:00;;;;;;;4.33;1.43;;;5.60;99.90;;;;;;5032692;28;20206;-75
2021/03/16 11:07:25;;;;;;;4.83;1.63;;;5.70;99.90;;;;;;5024355;28;20248;-75
2021/03/16 11:09:51;;;;;;;2.70;1.23;;;5.60;99.90;;;;;;5032891;28;20180;-75
2021/03/16 11:12:17;;;;;;;4.20;1.30;;;5.50;99.90;;;;;;5032989;28;20190;-74
2021/03/16 11:14:44;;;;;;;5.23;1.47;;;5.40;99.90;;;;;;5033175;28;20178;-75
2021/03/16 11:17:11;;;;;;;2.67;1.47;;;5.50;99.90;;;;;;5033177;28;20184;-75
2021/03/16 11:19:37;;;;;;;3.83;1.73;;;5.60;99.90;;;;;;5033018;28;20595;-75
2021/03/16 11:22:03;;;;;;;3.43;1.60;;;5.60;99.90;;;;;;5032631;28;20237;-75
2021/03/16 11:24:29;;;;;;;2.60;1.67;;;5.70;99.90;;;;;;5032889;28;20172;-75
2021/03/16 11:26:54;;;;;;;4.10;1.70;;;5.60;99.90;;;;;;5029717;28;20174;-75
2021/03/16 11:29:20;;;;;;;3.50;1.70;;;5.70;99.90;;;;;;5031445;28;20176;-75
2021/03/16 11:31:46;;;;;;;3.87;1.60;;;5.70;99.90;;;;;;5034922;28;20211;-75
2021/03/16 11:34:12;;;;;;;3.13;1.60;;;5.80;99.90;;;;;;5036700;28;20332;-74
2021/03/16 11:36:38;;;;;;;3.93;1.47;;;5.70;99.90;;;;;;5036838;28;20207;-75
2021/03/16 11:39:04;;;;;;;2.77;1.67;;;5.70;99.90;;;;;;5036650;28;20253;-75
2021/03/16 11:41:30;;;;;;;3.60;1.80;;;5.70;99.90;;;;;;5035141;28;20588;-75
2021/03/16 11:43:56;;;;;;;2.67;2.10;;;5.80;99.90;;;;;;5036254;28;20172;-74
2021/03/16 11:46:21;;;;;;;3.20;1.93;;;5.80;99.90;;;;;;5035222;28;20646;-74
2021/03/16 11:48:47;;;;;;;4.10;1.93;;;6.00;99.90;;;;;;5036307;28;20558;-74
2021/03/16 11:51:13;;;;;;;5.77;1.87;;;6.10;99.90;;;;;;5034929;28;21613;-75
2021/03/16 11:53:42;;;;;;;2.33;1.93;;;6.10;99.90;;;;;;5036440;28;20311;-74
2021/03/16 11:56:10;;;;;;;2.93;1.70;;;6.00;99.90;;;;;;5033326;28;20231;-75
2021/03/16 11:58:36;;;;;;;4.03;1.90;;;6.10;99.90;;;;;;5032246;28;20192;-74
2021/03/16 12:01:03;;;;;;;2.13;1.70;;;6.20;99.90;;;;;;5020969;28;20234;-74
2021/03/16 12:03:32;;;;;;;3.97;1.77;;;6.20;99.90;;;;;;5029321;28;20653;-74
2021/03/16 12:05:58;;;;;;;3.93;1.73;;;6.20;99.90;;;;;;5032477;28;20171;-75
2021/03/16 12:08:24;;;;;;;3.63;1.63;;;6.20;99.90;;;;;;5026479;28;20195;-73
2021/03/16 12:10:49;;;;;;;4.50;1.90;;;6.20;99.90;;;;;;5011296;28;20224;-74
2021/03/16 12:13:21;;;;;;;4.37;1.97;;;6.30;99.90;;;;;;5021228;28;20671;-74
2021/03/16 12:15:47;;;;;;;3.20;1.77;;;6.40;99.90;;;;;;5029584;28;20673;-74
2021/03/16 12:18:13;;;;;;;3.93;2.00;;;6.30;99.90;;;;;;5022711;28;20191;-73
2021/03/16 12:20:39;;;;;;;2.37;1.90;;;6.40;99.90;;;;;;5019986;28;20215;-74
2021/03/16 12:23:05;;;;;;;2.77;1.93;;;6.20;99.90;;;;;;5026909;28;20189;-74
2021/03/16 12:25:31;;;;;;;4.27;2.07;;;6.30;99.90;;;;;;5022610;28;20306;-73
2021/03/16 12:27:57;;;;;;;3.03;2.10;;;6.20;99.90;;;;;;5023860;28;20263;-73
2021/03/16 12:30:23;;;;;;;3.73;2.00;;;6.30;99.90;;;;;;5024633;28;20220;-75
2021/03/16 12:32:49;;;;;;;4.83;2.20;;;6.20;99.90;;;;;;5029501;28;20611;-74
2021/03/16 12:35:14;;;;;;;4.13;2.07;;;6.10;99.90;;;;;;5029613;28;20285;-74
2021/03/16 12:37:41;;;;;;;5.43;2.40;;;6.10;99.90;;;;;;5031396;28;20277;-75
2021/03/16 12:40:07;;;;;;;3.33;2.13;;;6.30;99.90;;;;;;5032293;28;20286;-74
2021/03/16 12:42:34;;;;;;;2.90;1.90;;;6.20;99.90;;;;;;5017849;28;20766;-74
2021/03/16 12:45:01;;;;;;;3.60;2.20;;;6.20;99.90;;;;;;5030796;28;20311;-75
2021/03/16 12:47:27;;;;;;;3.40;1.93;;;6.30;99.90;;;;;;5027837;28;20236;-74
2021/03/16 12:49:55;;;;;;;3.57;1.90;;;6.30;99.90;;;;;;5026088;28;20201;-75
2021/03/16 12:52:21;;;;;;;2.17;1.73;;;6.30;99.90;;;;;;5031164;28;20197;-74
2021/03/16 12:54:47;;;;;;;3.40;1.70;;;6.50;99.90;;;;;;5027747;28;20185;-75
2021/03/16 12:57:13;;;;;;;3.73;1.37;;;6.50;99.90;;;;;;5031934;28;20193;-74
2021/03/16 12:59:39;;;;;;;2.03;1.17;;;6.60;99.90;;;;;;5018483;28;20209;-75
2021/03/16 13:02:05;;;;;;;2.00;1.10;;;6.60;99.90;;;;;;5023636;28;20182;-75
2021/03/16 13:04:31;;;;;;;4.53;1.40;;;6.70;99.90;;;;;;5024183;28;20196;-74